Art, Texas
Current Conditions -  °F | °C
As of 5:15 PM on Wednesday 22 Oct 2014 (Local Time) from KBBD Reporting Station
Overcast Overcast  
Wind Chill: 75°   Ceiling: 10000
Heat Index: 75°   Visibility: 10mi
Dew Point: 50°   Wind: 7mph
Humidity: 41%   Direction: 120°ESE
Pressure: 30.08"   Gusts: NA
Location:  30.74°N, 99.11°W
Report Text: KBBD 222215Z AUTO 12006KT 10SM FEW070 OVC100 24/10 A3008 RMK
Loading
Personal Weather Stations






























Interactive Weather Map New forecast layout! Learn more

10-Day Weather Forecast

Advertisements
Track Severe Weather on mobile